createdAt,value
2023-01-29T00:01:04.236Z,8.18
2023-01-29T00:03:07.188Z,8.80
2023-01-29T00:05:26.494Z,8.60
2023-01-29T00:07:30.761Z,8.45
2023-01-29T00:09:33.759Z,9.32
2023-01-29T00:11:36.777Z,9.88
2023-01-29T00:13:41.130Z,7.95
2023-01-29T00:15:53.390Z,10.00
2023-01-29T00:17:56.332Z,9.15
2023-01-29T00:19:59.378Z,7.53
2023-01-29T00:22:02.408Z,5.95
2023-01-29T00:24:05.958Z,5.15
2023-01-29T00:26:09.213Z,4.45
2023-01-29T00:28:13.796Z,4.75
2023-01-29T00:30:20.195Z,4.00
2023-01-29T00:32:23.416Z,4.40
2023-01-29T00:34:26.323Z,4.32
2023-01-29T00:36:29.399Z,4.50
2023-01-29T00:38:32.437Z,4.43
2023-01-29T00:40:58.457Z,4.20
2023-01-29T00:43:20.157Z,4.68
2023-01-29T00:45:24.637Z,4.97
2023-01-29T00:47:34.020Z,4.70
2023-01-29T00:49:37.252Z,4.45
2023-01-29T00:51:40.679Z,4.70
2023-01-29T00:53:43.637Z,4.60
2023-01-29T00:55:46.737Z,4.60
2023-01-29T00:57:51.218Z,4.90
2023-01-29T00:59:54.279Z,4.63
2023-01-29T01:02:17.039Z,4.03
2023-01-29T01:04:23.684Z,2.88
2023-01-29T01:06:27.478Z,4.55
2023-01-29T01:08:49.079Z,4.45
2023-01-29T01:10:59.963Z,4.32
2023-01-29T01:13:14.910Z,4.40
2023-01-29T01:15:18.569Z,4.78
2023-01-29T01:17:23.042Z,4.38
2023-01-29T01:19:26.281Z,4.60
2023-01-29T01:21:29.317Z,4.80
2023-01-29T01:23:32.678Z,4.93
2023-01-29T01:25:35.639Z,5.78
2023-01-29T01:27:41.560Z,7.35
2023-01-29T01:29:44.440Z,6.13
2023-01-29T01:31:47.412Z,6.70
2023-01-29T01:33:54.630Z,6.45
2023-01-29T01:36:02.057Z,6.50
2023-01-29T01:38:05.178Z,7.07
2023-01-29T01:40:18.946Z,7.05
2023-01-29T01:42:22.042Z,7.57
2023-01-29T01:44:54.040Z,7.03
2023-01-29T01:46:57.055Z,7.18
2023-01-29T01:49:06.199Z,6.70
2023-01-29T01:51:09.598Z,6.82
2023-01-29T01:53:14.878Z,6.68
2023-01-29T01:57:26.038Z,6.88
2023-01-29T01:59:29.148Z,7.22
2023-01-29T02:01:32.239Z,7.95
2023-01-29T02:03:58.240Z,7.32
2023-01-29T02:06:21.417Z,7.50
2023-01-29T02:08:51.082Z,7.00
2023-01-29T02:10:54.478Z,7.05
2023-01-29T02:12:57.550Z,7.70
2023-01-29T02:15:00.896Z,7.20
2023-01-29T02:17:03.954Z,7.45
2023-01-29T02:19:15.243Z,7.53
2023-01-29T02:21:42.077Z,6.95
2023-01-29T02:26:21.039Z,7.28
2023-01-29T02:28:36.957Z,6.82
2023-01-29T02:30:48.796Z,6.63
2023-01-29T02:32:59.797Z,6.65
2023-01-29T02:35:47.034Z,6.85
2023-01-29T02:37:55.918Z,6.35
2023-01-29T02:40:10.357Z,6.90
2023-01-29T02:42:17.478Z,5.50
2023-01-29T02:44:30.677Z,6.32
2023-01-29T02:46:40.407Z,6.05
2023-01-29T02:48:49.598Z,7.05
2023-01-29T02:50:59.484Z,6.05
2023-01-29T02:53:08.600Z,6.68
2023-01-29T02:55:16.417Z,6.25
2023-01-29T02:57:23.356Z,6.97
2023-01-29T02:59:35.916Z,6.35
2023-01-29T03:01:46.488Z,7.25
2023-01-29T03:03:54.632Z,7.55
2023-01-29T03:06:06.569Z,6.43
2023-01-29T03:08:12.527Z,7.47
2023-01-29T03:10:20.518Z,7.38
2023-01-29T03:12:34.478Z,7.30
2023-01-29T03:15:01.652Z,7.55
2023-01-29T03:17:09.079Z,7.75
2023-01-29T03:19:17.638Z,7.90
2023-01-29T03:21:44.316Z,7.68
2023-01-29T03:24:06.668Z,7.90
2023-01-29T03:26:28.530Z,8.07
2023-01-29T03:28:51.067Z,9.07
2023-01-29T03:31:16.437Z,8.68
2023-01-29T03:33:26.897Z,8.15
2023-01-29T03:37:44.530Z,8.25
2023-01-29T03:39:48.438Z,8.55
2023-01-29T03:41:56.957Z,8.57
2023-01-29T03:44:10.881Z,8.63
2023-01-29T03:46:24.877Z,8.57
2023-01-29T03:48:33.557Z,8.85
2023-01-29T03:50:42.319Z,8.30
2023-01-29T03:52:52.002Z,8.77
2023-01-29T03:55:01.516Z,8.27
2023-01-29T03:57:17.716Z,8.65
2023-01-29T03:59:33.476Z,8.27
2023-01-29T04:02:13.302Z,9.95
2023-01-29T04:04:22.709Z,10.60
2023-01-29T04:06:30.437Z,10.45
2023-01-29T04:08:48.917Z,10.10
2023-01-29T04:10:55.287Z,10.63
2023-01-29T04:13:02.681Z,11.30
2023-01-29T04:15:11.460Z,11.07
2023-01-29T04:17:19.603Z,11.35
2023-01-29T04:19:32.357Z,10.68
2023-01-29T04:21:37.970Z,10.20
2023-01-29T04:23:41.891Z,9.90
2023-01-29T04:25:53.076Z,9.05
2023-01-29T04:28:04.513Z,8.85
2023-01-29T04:30:21.477Z,9.25
2023-01-29T04:32:33.036Z,9.18
2023-01-29T04:34:52.056Z,9.48
2023-01-29T04:37:04.936Z,10.32
2023-01-29T04:39:18.440Z,9.45
2023-01-29T04:41:28.077Z,9.95
2023-01-29T04:43:40.284Z,8.75
2023-01-29T04:45:55.276Z,9.02
2023-01-29T04:48:10.236Z,8.93
2023-01-29T04:50:18.699Z,8.95
2023-01-29T04:52:29.117Z,9.77
2023-01-29T04:54:43.481Z,9.30
2023-01-29T04:56:53.839Z,7.30
2023-01-29T04:59:01.268Z,8.00
2023-01-29T05:01:09.556Z,7.65
2023-01-29T05:03:15.876Z,7.32
2023-01-29T05:05:21.237Z,8.02
2023-01-29T05:07:27.044Z,8.10
2023-01-29T05:09:30.519Z,8.50
2023-01-29T05:11:35.296Z,7.75
2023-01-29T05:13:42.250Z,7.63
2023-01-29T05:15:49.153Z,7.70
2023-01-29T05:17:54.157Z,8.23
2023-01-29T05:19:58.678Z,7.05
2023-01-29T05:22:05.658Z,7.18
2023-01-29T05:24:13.319Z,6.93
2023-01-29T05:26:35.009Z,8.20
2023-01-29T05:28:37.911Z,8.25
2023-01-29T05:30:40.972Z,7.85
2023-01-29T05:32:43.812Z,8.82
2023-01-29T05:34:47.117Z,7.18
2023-01-29T05:36:51.614Z,7.00
2023-01-29T05:38:54.497Z,7.90
2023-01-29T05:40:59.650Z,6.93
2023-01-29T05:43:02.841Z,7.63
2023-01-29T05:45:06.709Z,6.85
2023-01-29T05:47:09.757Z,7.30
2023-01-29T05:49:13.077Z,7.63
2023-01-29T05:51:16.314Z,7.50
2023-01-29T05:53:20.698Z,8.02
2023-01-29T05:55:23.637Z,8.82
2023-01-29T05:57:26.806Z,9.70
2023-01-29T05:59:31.527Z,10.63
2023-01-29T06:01:34.592Z,9.30
2023-01-29T06:03:37.682Z,8.40
2023-01-29T06:05:40.914Z,7.30
2023-01-29T06:07:45.667Z,8.25
2023-01-29T06:09:50.122Z,8.70
2023-01-29T06:11:53.318Z,9.18
2023-01-29T06:13:56.310Z,8.88
2023-01-29T06:15:59.386Z,8.20
2023-01-29T06:18:02.557Z,8.80
2023-01-29T06:20:06.926Z,8.30
2023-01-29T06:22:09.918Z,8.20
2023-01-29T06:24:12.971Z,8.05
2023-01-29T06:26:17.449Z,7.25
2023-01-29T06:28:20.517Z,7.43
2023-01-29T06:30:23.957Z,7.72
2023-01-29T06:32:27.864Z,7.43
2023-01-29T06:34:30.949Z,7.97
2023-01-29T06:36:34.121Z,7.78
2023-01-29T06:38:37.017Z,7.75
2023-01-29T06:40:40.139Z,7.43
2023-01-29T06:42:46.134Z,7.65
2023-01-29T06:44:49.998Z,8.02
2023-01-29T06:46:52.928Z,8.70
2023-01-29T06:48:59.578Z,10.68
2023-01-29T06:51:03.616Z,13.25
2023-01-29T06:53:06.637Z,13.25
2023-01-29T06:55:10.337Z,10.65
2023-01-29T06:57:13.441Z,8.63
2023-01-29T06:59:18.077Z,9.10
2023-01-29T07:01:36.888Z,7.45
2023-01-29T07:03:41.878Z,8.32
2023-01-29T07:05:50.657Z,8.10
2023-01-29T07:07:53.558Z,7.63
2023-01-29T07:09:56.479Z,7.05
2023-01-29T07:11:59.433Z,7.05
2023-01-29T07:14:02.591Z,8.15
2023-01-29T07:16:07.623Z,8.07
2023-01-29T07:18:13.876Z,10.70
2023-01-29T07:20:17.580Z,10.15
2023-01-29T07:22:20.709Z,8.52
2023-01-29T07:24:23.742Z,8.18
2023-01-29T07:26:26.940Z,8.55
2023-01-29T07:28:31.197Z,8.98
2023-01-29T07:30:34.648Z,7.80
2023-01-29T07:32:38.937Z,7.40
2023-01-29T07:34:41.820Z,7.53
2023-01-29T07:36:45.048Z,7.65
2023-01-29T07:38:50.902Z,8.02
2023-01-29T07:40:53.921Z,8.38
2023-01-29T07:42:59.269Z,8.93
2023-01-29T07:45:02.926Z,7.75
2023-01-29T07:47:06.157Z,7.93
2023-01-29T07:49:10.559Z,8.95
2023-01-29T07:51:13.516Z,10.23
2023-01-29T07:53:17.437Z,9.02
2023-01-29T07:55:20.558Z,9.82
2023-01-29T07:57:23.669Z,8.90
2023-01-29T07:59:26.957Z,7.82
2023-01-29T08:01:29.861Z,8.63
2023-01-29T08:03:32.969Z,9.30
2023-01-29T08:05:37.407Z,8.73
2023-01-29T08:07:40.479Z,9.10
2023-01-29T08:09:43.615Z,8.88
2023-01-29T08:11:46.818Z,9.52
2023-01-29T08:13:49.732Z,9.82
2023-01-29T08:15:52.655Z,10.43
2023-01-29T08:17:57.952Z,11.00
2023-01-29T08:20:01.366Z,11.07
2023-01-29T08:22:06.401Z,11.13
2023-01-29T08:24:09.648Z,9.52
2023-01-29T08:26:12.533Z,12.85
2023-01-29T08:28:15.497Z,12.15
2023-01-29T08:30:18.825Z,11.32
2023-01-29T08:32:21.757Z,11.18
2023-01-29T08:34:24.688Z,12.27
2023-01-29T08:36:27.919Z,11.27
2023-01-29T08:38:32.517Z,14.20
2023-01-29T08:40:35.884Z,14.00
2023-01-29T08:42:38.761Z,14.43
2023-01-29T08:44:41.917Z,13.38
2023-01-29T08:46:45.007Z,11.90
2023-01-29T08:48:48.037Z,10.45
2023-01-29T08:50:51.397Z,8.82
2023-01-29T08:52:58.382Z,10.80
2023-01-29T08:55:02.700Z,10.23
2023-01-29T08:57:05.879Z,11.48
2023-01-29T08:59:10.123Z,11.98
2023-01-29T09:01:14.577Z,10.73
2023-01-29T09:03:17.523Z,12.52
2023-01-29T09:05:20.704Z,9.93
2023-01-29T09:07:23.627Z,10.98
2023-01-29T09:09:26.757Z,10.80
2023-01-29T09:11:31.199Z,15.88
2023-01-29T09:13:34.557Z,11.48
2023-01-29T09:15:37.418Z,7.85
2023-01-29T09:17:41.376Z,7.60
2023-01-29T09:19:44.295Z,8.70
2023-01-29T09:21:47.308Z,7.68
2023-01-29T09:23:50.277Z,8.43
2023-01-29T09:25:53.277Z,7.82
2023-01-29T09:27:57.627Z,6.13
2023-01-29T09:30:00.878Z,6.43
2023-01-29T09:32:04.936Z,7.60
2023-01-29T09:34:07.808Z,8.68
2023-01-29T09:36:10.998Z,9.70
2023-01-29T09:38:14.608Z,6.93
2023-01-29T09:40:26.427Z,7.43
2023-01-29T09:42:36.477Z,8.25
2023-01-29T09:44:54.497Z,7.57
2023-01-29T09:47:00.547Z,7.32
2023-01-29T09:49:11.317Z,9.93
2023-01-29T09:51:22.238Z,9.57
2023-01-29T09:53:31.999Z,9.65
2023-01-29T09:55:41.878Z,5.97
2023-01-29T09:57:48.435Z,7.68
2023-01-29T09:59:52.979Z,10.52
2023-01-29T10:02:05.743Z,10.93
2023-01-29T10:04:28.214Z,8.63
2023-01-29T10:06:49.480Z,10.82
2023-01-29T10:09:30.798Z,10.73
2023-01-29T10:11:43.838Z,9.43
2023-01-29T10:13:56.087Z,14.23
2023-01-29T10:16:12.077Z,16.23
2023-01-29T10:18:45.527Z,20.30
2023-01-29T10:20:58.477Z,13.40
2023-01-29T10:23:21.218Z,10.45
2023-01-29T10:25:24.476Z,12.52
2023-01-29T10:27:33.452Z,9.98
2023-01-29T10:29:36.659Z,8.32
2023-01-29T10:31:41.573Z,8.55
2023-01-29T10:34:01.420Z,10.00
2023-01-29T10:36:10.231Z,7.78
2023-01-29T10:38:24.751Z,8.00
2023-01-29T10:40:44.367Z,9.52
2023-01-29T10:42:53.418Z,8.93
2023-01-29T10:45:13.358Z,9.10
2023-01-29T10:47:45.660Z,12.50
2023-01-29T10:50:06.491Z,10.18
2023-01-29T10:52:32.397Z,10.15
2023-01-29T10:54:56.597Z,11.23
2023-01-29T10:57:11.658Z,12.48
2023-01-29T10:59:33.513Z,12.02
2023-01-29T11:01:36.385Z,12.55
2023-01-29T11:03:41.099Z,11.13
2023-01-29T11:05:51.708Z,11.90
2023-01-29T11:08:03.349Z,11.13
2023-01-29T11:10:12.160Z,12.00
2023-01-29T11:12:19.536Z,12.05
2023-01-29T11:14:27.487Z,10.40
2023-01-29T11:16:30.973Z,10.07
2023-01-29T11:18:54.036Z,11.10
2023-01-29T11:21:03.184Z,10.95
2023-01-29T11:23:07.633Z,10.40
2023-01-29T11:25:17.239Z,11.35
2023-01-29T11:27:26.238Z,11.10
2023-01-29T11:29:38.236Z,10.32
2023-01-29T11:31:41.367Z,11.20
2023-01-29T11:33:45.734Z,10.73
2023-01-29T11:35:53.044Z,10.93
2023-01-29T11:38:08.255Z,12.38
2023-01-29T11:40:41.373Z,12.30
2023-01-29T11:42:44.758Z,13.68
2023-01-29T11:44:47.918Z,13.50
2023-01-29T11:46:51.117Z,12.82
2023-01-29T11:48:59.331Z,13.40
2023-01-29T11:51:13.367Z,13.27
2023-01-29T11:53:29.838Z,11.13
2023-01-29T11:55:49.828Z,13.27
2023-01-29T11:57:57.000Z,13.82
2023-01-29T12:00:03.038Z,18.15
2023-01-29T12:02:23.774Z,12.00
2023-01-29T12:06:35.680Z,15.30
2023-01-29T12:08:40.318Z,14.05
2023-01-29T12:10:44.177Z,13.20
2023-01-29T12:12:47.279Z,13.82
2023-01-29T12:15:04.502Z,13.68
2023-01-29T12:17:12.998Z,13.20
2023-01-29T12:19:27.718Z,14.88
2023-01-29T12:21:38.518Z,11.98
2023-01-29T12:23:48.607Z,13.13
2023-01-29T12:26:01.846Z,11.07
2023-01-29T12:28:10.860Z,14.48
2023-01-29T12:30:20.090Z,12.52
2023-01-29T12:32:33.012Z,12.30
2023-01-29T12:34:46.037Z,12.65
2023-01-29T12:36:55.839Z,12.77
2023-01-29T12:38:59.681Z,16.02
2023-01-29T12:41:08.338Z,14.20
2023-01-29T12:43:16.267Z,12.57
2023-01-29T12:45:21.398Z,12.32
2023-01-29T12:47:30.648Z,10.23
2023-01-29T12:49:36.121Z,13.07
2023-01-29T12:53:51.428Z,8.68
2023-01-29T12:55:58.317Z,9.02
2023-01-29T12:58:03.452Z,13.00
2023-01-29T13:00:12.718Z,13.45
2023-01-29T13:02:31.139Z,11.18
2023-01-29T13:04:40.721Z,10.70
2023-01-29T13:06:50.064Z,8.77
2023-01-29T13:08:58.517Z,7.90
2023-01-29T13:11:07.283Z,6.68
2023-01-29T13:13:19.678Z,9.88
2023-01-29T13:15:26.701Z,8.88
2023-01-29T13:17:36.605Z,7.75
2023-01-29T13:19:45.725Z,7.57
2023-01-29T13:21:49.160Z,7.93
2023-01-29T13:23:57.112Z,8.77
2023-01-29T13:26:00.789Z,9.50
2023-01-29T13:28:04.230Z,7.72
2023-01-29T13:30:09.153Z,8.18
2023-01-29T13:32:12.238Z,16.37
2023-01-29T13:34:19.819Z,15.07
2023-01-29T13:36:27.801Z,18.45
2023-01-29T13:38:33.839Z,16.77
2023-01-29T13:40:38.892Z,7.60
2023-01-29T13:42:46.300Z,6.95
2023-01-29T13:44:50.917Z,6.85
2023-01-29T13:46:59.850Z,5.97
2023-01-29T13:49:05.557Z,6.88
2023-01-29T13:51:18.139Z,7.22
2023-01-29T13:53:24.759Z,6.75
2023-01-29T13:55:31.837Z,6.88
2023-01-29T13:57:55.386Z,7.07
2023-01-29T13:59:59.241Z,13.65
2023-01-29T14:02:04.474Z,14.13
2023-01-29T14:04:25.895Z,11.43
2023-01-29T14:06:49.558Z,11.48
2023-01-29T14:08:52.558Z,13.70
2023-01-29T14:11:29.367Z,14.27
2023-01-29T14:13:37.120Z,12.07
2023-01-29T14:15:40.597Z,9.38
2023-01-29T14:18:03.597Z,9.77
2023-01-29T14:20:19.817Z,11.23
2023-01-29T14:22:25.114Z,16.00
2023-01-29T14:24:31.387Z,15.60
2023-01-29T14:26:45.958Z,9.98
2023-01-29T14:28:59.129Z,16.10
2023-01-29T14:31:03.262Z,11.43
2023-01-29T14:33:07.149Z,9.25
2023-01-29T14:35:19.575Z,10.27
2023-01-29T14:37:29.317Z,12.05
2023-01-29T14:39:37.476Z,11.10
2023-01-29T14:41:40.285Z,14.82
2023-01-29T14:43:43.246Z,16.35
2023-01-29T14:45:48.964Z,11.13
2023-01-29T14:48:20.874Z,17.90
2023-01-29T14:50:54.555Z,16.38
2023-01-29T14:53:02.596Z,10.23
2023-01-29T14:55:09.636Z,10.40
2023-01-29T14:57:16.411Z,9.98
2023-01-29T14:59:24.358Z,16.90
2023-01-29T15:01:33.162Z,9.80
2023-01-29T15:03:44.018Z,10.20
2023-01-29T15:05:49.438Z,14.02
2023-01-29T15:07:58.938Z,11.85
2023-01-29T15:10:22.328Z,12.25
2023-01-29T15:12:32.000Z,10.88
2023-01-29T15:14:38.423Z,10.80
2023-01-29T15:16:53.067Z,9.48
2023-01-29T15:19:04.770Z,9.73
2023-01-29T15:21:12.948Z,10.40
2023-01-29T15:23:26.227Z,11.00
2023-01-29T15:25:34.709Z,10.57
2023-01-29T15:27:42.498Z,11.20
2023-01-29T15:29:51.687Z,9.90
2023-01-29T15:31:57.268Z,11.35
2023-01-29T15:34:06.654Z,9.23
2023-01-29T15:36:19.337Z,12.93
2023-01-29T15:38:24.677Z,13.48
2023-01-29T15:40:28.229Z,12.77
2023-01-29T15:42:44.999Z,12.40
2023-01-29T15:44:48.513Z,13.63
2023-01-29T15:46:55.228Z,12.38
2023-01-29T15:49:02.800Z,13.05
2023-01-29T15:51:07.861Z,13.10
2023-01-29T15:53:16.367Z,12.68
2023-01-29T15:55:23.637Z,13.07
2023-01-29T15:57:33.244Z,12.70
2023-01-29T15:59:42.881Z,14.68
2023-01-29T16:01:46.354Z,16.48
2023-01-29T16:03:50.978Z,12.93
2023-01-29T16:05:55.951Z,15.13
2023-01-29T16:08:01.277Z,23.70
2023-01-29T16:10:05.997Z,15.88
2023-01-29T16:12:13.397Z,22.88
2023-01-29T16:14:20.911Z,23.80
2023-01-29T16:16:26.238Z,33.95
2023-01-29T16:20:45.136Z,23.60
2023-01-29T16:22:49.517Z,27.73
2023-01-29T16:24:53.525Z,28.58
2023-01-29T16:27:00.739Z,23.67
2023-01-29T16:29:08.621Z,23.20
2023-01-29T16:31:14.383Z,21.38
2023-01-29T16:33:18.050Z,17.45
2023-01-29T16:35:21.139Z,40.25
2023-01-29T16:37:27.079Z,27.52
2023-01-29T16:39:34.907Z,16.80
2023-01-29T16:41:38.783Z,22.25
2023-01-29T16:43:51.535Z,21.83
2023-01-29T16:46:04.758Z,20.42
2023-01-29T16:48:28.084Z,16.20
2023-01-29T16:50:43.285Z,17.25
2023-01-29T16:52:57.765Z,23.90
2023-01-29T16:55:21.836Z,53.63
2023-01-29T16:57:27.007Z,42.25
2023-01-29T16:59:33.596Z,27.85
2023-01-29T17:01:37.201Z,37.38
2023-01-29T17:03:41.952Z,21.45
2023-01-29T17:05:45.827Z,23.05
2023-01-29T17:07:49.019Z,26.88
2023-01-29T17:09:56.142Z,31.02
2023-01-29T17:12:03.826Z,24.83
2023-01-29T17:14:08.108Z,24.63
2023-01-29T17:16:24.425Z,23.10
2023-01-29T17:18:27.337Z,32.95
2023-01-29T17:20:31.900Z,30.33
2023-01-29T17:22:34.778Z,22.70
2023-01-29T17:24:37.554Z,21.75
2023-01-29T17:26:41.145Z,25.83
2023-01-29T17:28:46.188Z,24.17
2023-01-29T17:31:04.252Z,27.90
2023-01-29T17:33:13.954Z,21.45
2023-01-29T17:35:17.928Z,18.25
2023-01-29T17:37:21.157Z,22.20
2023-01-29T17:39:25.859Z,21.50
2023-01-29T17:41:30.786Z,18.85
2023-01-29T17:43:33.798Z,17.85
2023-01-29T17:45:39.090Z,17.48
2023-01-29T17:47:42.078Z,19.40
2023-01-29T17:49:44.997Z,19.70
2023-01-29T17:51:49.437Z,17.05
2023-01-29T17:53:52.359Z,19.00
2023-01-29T17:55:55.248Z,40.10
2023-01-29T17:57:58.318Z,35.58
2023-01-29T18:00:01.282Z,35.67
2023-01-29T18:02:05.682Z,43.28
2023-01-29T18:04:09.603Z,43.25
2023-01-29T18:06:20.273Z,32.55
2023-01-29T18:08:28.828Z,25.80
2023-01-29T18:10:31.830Z,25.13
2023-01-29T18:12:35.158Z,29.35
2023-01-29T18:14:37.988Z,34.35
2023-01-29T18:16:41.763Z,29.73
2023-01-29T18:18:46.101Z,30.02
2023-01-29T18:20:49.299Z,26.25
2023-01-29T18:22:52.698Z,30.98
2023-01-29T18:24:55.661Z,32.08
2023-01-29T18:26:58.497Z,39.72
2023-01-29T18:29:01.450Z,30.80
2023-01-29T18:31:05.754Z,25.42
2023-01-29T18:33:09.168Z,28.13
2023-01-29T18:35:13.791Z,24.35
2023-01-29T18:37:16.960Z,22.83
2023-01-29T18:39:19.891Z,22.33
2023-01-29T18:41:22.880Z,22.90
2023-01-29T18:43:26.355Z,22.88
2023-01-29T18:45:30.238Z,22.30
2023-01-29T18:47:33.167Z,19.75
2023-01-29T18:49:39.430Z,21.67
2023-01-29T18:51:43.819Z,21.55
2023-01-29T18:53:50.264Z,23.73
2023-01-29T18:55:58.059Z,27.20
2023-01-29T18:58:28.420Z,27.73
2023-01-29T19:00:25.157Z,41.55
2023-01-29T19:02:28.246Z,21.20
2023-01-29T19:04:31.122Z,23.27
2023-01-29T19:06:37.022Z,22.42
2023-01-29T19:08:43.241Z,22.48
2023-01-29T19:10:46.562Z,22.63
2023-01-29T19:12:49.552Z,26.77
2023-01-29T19:14:52.398Z,43.78
2023-01-29T19:16:56.222Z,48.10
2023-01-29T19:19:00.163Z,37.10
2023-01-29T19:21:07.801Z,25.48
2023-01-29T19:23:10.940Z,25.45
2023-01-29T19:25:16.589Z,35.78
2023-01-29T19:27:20.073Z,26.75
2023-01-29T19:29:23.123Z,26.63
2023-01-29T19:31:26.389Z,29.20
2023-01-29T19:33:29.520Z,28.05
2023-01-29T19:35:33.890Z,26.50
2023-01-29T19:37:36.770Z,26.05
2023-01-29T19:39:39.679Z,30.73
2023-01-29T19:41:44.085Z,24.23
2023-01-29T19:43:48.561Z,23.30
2023-01-29T19:45:58.151Z,18.08
2023-01-29T19:48:01.208Z,26.67
2023-01-29T19:50:04.532Z,18.67
2023-01-29T19:52:15.105Z,22.80
2023-01-29T19:54:18.640Z,25.98
2023-01-29T19:56:22.641Z,23.60
2023-01-29T19:58:28.018Z,81.97
2023-01-29T20:00:31.349Z,75.43
2023-01-29T20:02:34.262Z,39.85
2023-01-29T20:04:36.983Z,30.70
2023-01-29T20:06:39.788Z,26.42
2023-01-29T20:08:43.126Z,27.58
2023-01-29T20:10:46.416Z,24.67
2023-01-29T20:12:49.705Z,25.10
2023-01-29T20:14:53.956Z,23.23
2023-01-29T20:16:56.707Z,24.13
2023-01-29T20:19:14.758Z,24.45
2023-01-29T20:21:20.814Z,25.90
2023-01-29T20:23:37.169Z,20.20
2023-01-29T20:25:41.144Z,21.98
2023-01-29T20:27:43.903Z,52.08
2023-01-29T20:29:46.959Z,52.63
2023-01-29T20:31:51.404Z,59.28
2023-01-29T20:33:54.368Z,38.33
2023-01-29T20:35:58.590Z,28.42
2023-01-29T20:38:02.258Z,21.52
2023-01-29T20:40:05.987Z,21.75
2023-01-29T20:42:09.097Z,27.30
2023-01-29T20:44:11.979Z,31.70
2023-01-29T20:46:14.958Z,45.20
2023-01-29T20:48:19.517Z,54.55
2023-01-29T20:50:22.518Z,29.98
2023-01-29T20:52:25.582Z,31.23
2023-01-29T20:54:30.199Z,30.95
2023-01-29T20:56:37.412Z,30.80
2023-01-29T20:58:47.152Z,24.92
2023-01-29T21:00:50.050Z,22.27
2023-01-29T21:02:52.996Z,25.30
2023-01-29T21:04:57.165Z,23.58
2023-01-29T21:06:59.954Z,23.08
2023-01-29T21:09:02.808Z,23.27
2023-01-29T21:11:06.981Z,22.90
2023-01-29T21:13:09.714Z,21.73
2023-01-29T21:15:12.938Z,23.17
2023-01-29T21:17:15.834Z,32.03
2023-01-29T21:19:18.884Z,24.08
2023-01-29T21:21:23.278Z,21.92
2023-01-29T21:23:26.206Z,27.52
2023-01-29T21:25:29.203Z,22.33
2023-01-29T21:27:32.165Z,21.25
2023-01-29T21:29:36.820Z,22.15
2023-01-29T21:33:43.720Z,20.13
2023-01-29T21:35:46.596Z,21.77
2023-01-29T21:37:51.347Z,21.50
2023-01-29T21:39:54.366Z,23.20
2023-01-29T21:42:16.135Z,20.73
2023-01-29T21:44:19.108Z,21.75
2023-01-29T21:46:21.988Z,24.13
2023-01-29T21:48:25.418Z,22.27
2023-01-29T21:50:28.628Z,23.25
2023-01-29T21:52:31.716Z,22.20
2023-01-29T21:54:46.063Z,22.95
2023-01-29T21:56:49.013Z,22.30
2023-01-29T21:58:52.407Z,20.50
2023-01-29T22:00:55.318Z,22.02
2023-01-29T22:02:58.152Z,23.08
2023-01-29T22:05:18.028Z,21.73
2023-01-29T22:07:22.047Z,21.83
2023-01-29T22:09:25.057Z,21.38
2023-01-29T22:11:29.647Z,22.38
2023-01-29T22:13:32.640Z,20.88
2023-01-29T22:15:35.782Z,20.48
2023-01-29T22:17:41.617Z,21.63
2023-01-29T22:19:44.762Z,20.83
2023-01-29T22:21:47.766Z,21.52
2023-01-29T22:23:50.997Z,21.77
2023-01-29T22:25:53.968Z,21.15
2023-01-29T22:27:58.338Z,21.40
2023-01-29T22:30:01.235Z,20.85
2023-01-29T22:32:04.597Z,20.10
2023-01-29T22:34:07.726Z,22.10
2023-01-29T22:36:11.058Z,21.23
2023-01-29T22:38:14.061Z,21.13
2023-01-29T22:40:17.632Z,22.00
2023-01-29T22:42:21.081Z,21.25
2023-01-29T22:44:25.507Z,21.20
2023-01-29T22:46:28.616Z,20.90
2023-01-29T22:48:31.637Z,20.42
2023-01-29T22:50:34.577Z,20.63
2023-01-29T22:52:42.936Z,19.58
2023-01-29T22:54:45.917Z,19.95
2023-01-29T22:56:49.388Z,19.52
2023-01-29T22:58:52.933Z,19.83
2023-01-29T23:00:57.223Z,18.70
2023-01-29T23:03:00.398Z,19.13
2023-01-29T23:05:04.602Z,20.10
2023-01-29T23:07:07.640Z,19.58
2023-01-29T23:09:10.506Z,18.15
2023-01-29T23:11:17.936Z,17.65
2023-01-29T23:13:20.979Z,17.10
2023-01-29T23:15:24.037Z,18.05
2023-01-29T23:17:28.593Z,18.77
2023-01-29T23:19:31.667Z,17.13
2023-01-29T23:21:34.842Z,16.45
2023-01-29T23:23:38.398Z,17.75
2023-01-29T23:26:00.065Z,18.52
2023-01-29T23:28:02.950Z,17.80
2023-01-29T23:30:08.037Z,17.80
2023-01-29T23:32:11.780Z,18.70
2023-01-29T23:34:16.199Z,17.83
2023-01-29T23:36:19.243Z,18.80
2023-01-29T23:38:22.110Z,17.55
2023-01-29T23:40:25.103Z,19.30
2023-01-29T23:42:28.038Z,17.27
2023-01-29T23:44:31.097Z,16.95
2023-01-29T23:46:34.106Z,17.98
2023-01-29T23:48:37.155Z,16.77
2023-01-29T23:50:41.458Z,17.10
2023-01-29T23:52:44.315Z,18.13
2023-01-29T23:54:47.157Z,17.48
2023-01-29T23:56:50.208Z,17.08
2023-01-29T23:58:56.286Z,16.13
